Time;durP1;ratioP1;P1;durP2;ratioP2;P2;SDS_P1;SDS_P2;PMS_P1;PMS_P2;Temp;Humidity;BMP_temperature;BMP_pressure;BME280_temperature;BME280_humidity;BME280_pressure;Samples;Min_cycle;Max_cycle;Signal;HPM_P1;HPM_P2
2023/02/05 00:01:47;;;;;;;6.23;5.33;;;;;;;16.70;46.88;98830.94;5070909;28;20211;-88
2023/02/05 00:04:17;;;;;;;7.47;5.50;;;;;;;14.94;46.73;98500.69;5065981;28;20207;-88
2023/02/05 00:06:44;;;;;;;9.57;5.63;;;;;;;14.85;46.84;98525.34;5065812;28;20236;-89
2023/02/05 00:09:11;;;;;;;6.03;5.30;;;;;;;18.18;46.84;99015.63;5054794;28;20204;-88
2023/02/05 00:11:40;;;;;;;5.83;5.10;;;;;;;17.65;46.68;98916.22;5072512;28;20268;-86
2023/02/05 00:14:10;;;;;;;5.90;4.93;;;;;;;16.82;46.72;98770.84;5052886;28;20201;-89
2023/02/05 00:16:36;;;;;;;6.97;5.57;;;;;;;19.42;46.67;99276.09;5071827;28;20278;-88
2023/02/05 00:19:03;;;;;;;5.53;4.77;;;;;;;18.43;46.73;99050.34;5067197;28;20205;-88
2023/02/05 00:21:30;;;;;;;7.30;5.57;;;;;;;19.22;46.89;99195.72;5071560;28;20496;-88
2023/02/05 00:23:59;;;;;;;6.93;5.27;;;;;;;19.34;46.49;99216.97;5039176;28;20552;-88
2023/02/05 00:26:26;;;;;;;6.73;5.93;;;;;;;16.71;46.79;98754.00;5054671;28;20245;-87
2023/02/05 00:28:53;;;;;;;6.10;5.33;;;;;;;19.71;46.72;99329.84;5061441;28;20204;-86
2023/02/05 00:31:20;;;;;;;7.90;5.10;;;;;;;16.66;46.47;98740.09;5049193;28;20247;-88
2023/02/05 00:33:47;;;;;;;6.27;5.27;;;;;;;19.12;46.46;99256.19;5042938;28;20251;-88
2023/02/05 00:36:14;;;;;;;6.67;5.40;;;;;;;16.67;46.83;98782.47;5029370;28;20295;-88
2023/02/05 00:38:41;;;;;;;8.03;5.70;;;;;;;16.76;46.55;98843.16;5044834;28;20234;-89
2023/02/05 00:41:08;;;;;;;7.47;5.57;;;;;;;19.68;46.51;99278.63;5038220;28;20657;-85
2023/02/05 00:43:35;;;;;;;5.97;5.37;;;;;;;18.78;46.74;99171.56;5052356;28;20250;-88
2023/02/05 00:46:01;;;;;;;7.00;5.33;;;;;;;17.81;46.48;98946.94;5054029;28;20220;-88
2023/02/05 00:48:28;;;;;;;8.00;5.80;;;;;;;15.59;46.37;98547.59;5042891;28;20287;-88
2023/02/05 00:50:55;;;;;;;7.03;6.13;;;;;;;18.25;46.57;99019.47;5062456;28;20458;-87
2023/02/05 00:53:26;;;;;;;6.43;5.77;;;;;;;13.49;46.46;98213.84;5048627;28;20272;-89
2023/02/05 00:55:53;;;;;;;7.40;6.03;;;;;;;18.48;46.54;99079.53;5061169;28;20223;-88
2023/02/05 00:58:20;;;;;;;6.97;5.60;;;;;;;17.86;46.08;98949.00;5033318;28;20623;-89
2023/02/05 01:00:51;;;;;;;6.80;5.70;;;;;;;16.83;46.59;98813.22;5062887;28;20196;-89
2023/02/05 01:03:18;;;;;;;6.93;5.77;;;;;;;17.99;46.59;98996.50;5051793;28;20231;-88
2023/02/05 01:05:45;;;;;;;6.30;5.63;;;;;;;19.45;46.50;99217.66;5039359;28;20245;-89
2023/02/05 01:08:12;;;;;;;7.47;5.83;;;;;;;20.53;46.45;99486.72;5042975;28;20205;-87
2023/02/05 01:10:42;;;;;;;5.67;5.03;;;;;;;15.30;46.34;98516.78;5039546;28;20206;-89
2023/02/05 01:13:12;;;;;;;5.83;5.30;;;;;;;15.64;46.30;98672.94;5029838;28;20215;-89
2023/02/05 01:15:39;;;;;;;6.73;5.87;;;;;;;15.97;46.24;98611.91;5038116;28;20307;-90
2023/02/05 01:18:05;;;;;;;7.47;5.80;;;;;;;18.47;46.52;99065.91;5044179;28;20718;-87
2023/02/05 01:20:35;;;;;;;7.47;6.00;;;;;;;15.16;46.20;98498.91;5037406;28;20302;-88
2023/02/05 01:23:04;;;;;;;6.00;5.40;;;;;;;15.60;46.42;98566.22;5054441;28;20212;-89
2023/02/05 01:25:33;;;;;;;6.10;5.50;;;;;;;16.40;46.25;98766.22;5038608;28;20240;-87
2023/02/05 01:28:00;;;;;;;6.87;5.73;;;;;;;15.32;46.29;98499.16;5037013;28;20262;-89
2023/02/05 01:30:27;;;;;;;5.77;5.23;;;;;;;16.85;46.49;98795.53;5054067;28;20200;-88
2023/02/05 01:32:53;;;;;;;7.33;6.07;;;;;;;18.37;46.32;99086.47;5050615;28;20296;-88
2023/02/05 01:35:20;;;;;;;6.90;6.20;;;;;;;18.51;46.22;99103.53;5034104;28;20225;-88
2023/02/05 01:37:47;;;;;;;7.27;6.00;;;;;;;14.57;46.25;98427.25;5063335;28;20204;-88
2023/02/05 01:40:16;;;;;;;7.40;5.90;;;;;;;15.99;46.31;98694.00;5053205;28;20232;-87
2023/02/05 01:42:43;;;;;;;6.27;5.57;;;;;;;15.45;46.45;98620.88;5049867;28;20204;-89
2023/02/05 01:45:21;;;;;;;6.73;6.07;;;;;;;20.54;46.18;99428.06;5036272;28;20220;-88
2023/02/05 01:48:03;;;;;;;6.83;6.13;;;;;;;15.40;46.10;98513.28;5070700;28;20669;-87
2023/02/05 01:50:31;;;;;;;6.87;6.20;;;;;;;16.87;46.27;98832.09;5052836;28;20665;-88
2023/02/05 01:52:59;;;;;;;6.53;5.83;;;;;;;14.67;45.95;98398.44;5033840;28;20199;-88
2023/02/05 01:55:29;;;;;;;6.27;5.67;;;;;;;18.37;46.15;99030.47;5045544;28;20601;-88
2023/02/05 01:57:55;;;;;;;6.67;5.73;;;;;;;18.02;46.23;98977.25;5052013;28;20216;-88
2023/02/05 02:00:22;;;;;;;6.43;5.83;;;;;;;19.41;46.09;99215.66;5053986;28;20681;-88
2023/02/05 02:02:49;;;;;;;6.57;5.87;;;;;;;17.36;46.47;98871.03;5069631;28;20262;-86
2023/02/05 02:05:16;;;;;;;6.27;5.67;;;;;;;14.20;45.69;98286.38;5040508;28;20636;-88
2023/02/05 02:07:43;;;;;;;6.97;5.67;;;;;;;16.64;46.47;98782.25;5049668;28;20204;-88
2023/02/05 02:10:11;;;;;;;7.87;6.13;;;;;;;19.88;46.21;99281.69;5050822;28;20201;-87
2023/02/05 02:12:39;;;;;;;6.17;5.57;;;;;;;15.76;45.86;98579.13;5037276;28;20212;-88
2023/02/05 02:15:17;;;;;;;6.73;5.70;;;;;;;19.77;45.97;99277.56;5040497;28;20597;-88
2023/02/05 02:17:49;;;;;;;6.70;5.80;;;;;;;18.89;46.08;99106.03;5032658;28;20225;-87
2023/02/05 02:20:25;;;;;;;6.57;5.90;;;;;;;18.60;46.15;99072.69;5031019;28;20192;-88
2023/02/05 02:23:29;;;;;;;7.60;5.73;;;;;;;20.17;46.00;99338.81;5027423;28;20266;-87
2023/02/05 02:26:14;;;;;;;7.63;6.20;;;;;;;20.49;46.19;99391.13;5065439;28;20217;-86
2023/02/05 02:28:49;;;;;;;7.10;5.60;;;;;;;19.68;45.90;99243.81;5061661;28;20193;-88
2023/02/05 02:31:43;;;;;;;7.07;5.80;;;;;;;20.49;46.15;99383.47;5029165;28;20207;-88
2023/02/05 02:34:12;;;;;;;6.70;5.67;;;;;;;20.49;46.21;99380.91;5043606;28;20617;-89
2023/02/05 02:37:10;;;;;;;6.53;5.83;;;;;;;16.42;46.02;98738.41;5062301;28;20228;-88
2023/02/05 02:39:42;;;;;;;6.67;5.93;;;;;;;17.30;46.09;98854.50;5056161;28;20200;-88
2023/02/05 02:42:14;;;;;;;6.83;5.87;;;;;;;18.00;46.11;98963.53;5042865;28;20204;-88
2023/02/05 02:44:51;;;;;;;6.90;6.17;;;;;;;15.90;45.98;98612.25;5061711;28;20304;-88
2023/02/05 02:47:20;;;;;;;6.00;5.40;;;;;;;17.68;46.09;98929.13;5034700;28;20236;-88
2023/02/05 02:49:49;;;;;;;6.20;5.53;;;;;;;16.61;45.81;98771.03;5031747;28;20209;-86
2023/02/05 02:52:18;;;;;;;5.70;5.13;;;;;;;16.38;45.95;98689.09;5045020;28;20685;-88
2023/02/05 02:54:45;;;;;;;6.10;5.50;;;;;;;19.40;46.00;99173.13;5053083;28;20627;-87
2023/02/05 02:57:12;;;;;;;6.63;5.80;;;;;;;15.42;45.99;98519.34;5031388;28;20209;-88
2023/02/05 02:59:39;;;;;;;7.00;5.57;;;;;;;15.80;45.91;98530.41;5072357;28;20204;-88
2023/02/05 03:02:06;;;;;;;6.90;6.20;;;;;;;17.86;46.10;98904.91;5053199;28;20201;-88
2023/02/05 03:04:35;;;;;;;6.23;5.63;;;;;;;20.46;45.90;99344.09;5055621;28;20608;-89
2023/02/05 03:07:15;;;;;;;7.13;5.87;;;;;;;17.50;45.98;98821.16;5028504;28;20625;-88
2023/02/05 03:09:48;;;;;;;6.23;5.67;;;;;;;17.89;45.87;98908.50;5053435;28;20231;-88
2023/02/05 03:12:15;;;;;;;6.07;5.47;;;;;;;17.37;45.60;98824.50;5056929;28;20231;-86
2023/02/05 03:14:41;;;;;;;7.47;5.83;;;;;;;16.07;45.32;98568.63;5031919;28;20212;-89
2023/02/05 03:17:08;;;;;;;6.43;5.70;;;;;;;19.45;45.92;99159.88;5069844;28;20208;-89
2023/02/05 03:19:35;;;;;;;6.57;5.87;;;;;;;17.70;46.04;98856.38;5039948;28;20596;-88
2023/02/05 03:22:02;;;;;;;5.67;5.17;;;;;;;17.13;45.69;98772.09;5032165;28;20250;-89
2023/02/05 03:24:32;;;;;;;6.17;5.50;;;;;;;17.34;45.68;98780.22;5031851;28;20196;-89
2023/02/05 03:27:02;;;;;;;6.70;6.00;;;;;;;20.27;46.24;99307.97;5056143;28;20197;-89
2023/02/05 03:29:34;;;;;;;6.07;5.47;;;;;;;17.65;45.93;98873.84;5056596;28;20254;-88
2023/02/05 03:32:05;;;;;;;6.17;5.57;;;;;;;18.45;45.92;99008.06;5039496;28;20245;-89
2023/02/05 03:34:41;;;;;;;6.53;5.80;;;;;;;20.50;46.10;99340.94;5045218;28;20216;-88
2023/02/05 03:38:01;;;;;;;6.70;5.97;;;;;;;20.49;45.97;99336.63;5059772;28;20505;-88
2023/02/05 03:40:33;;;;;;;6.03;5.47;;;;;;;19.11;45.66;99116.81;5043626;28;20283;-89
2023/02/05 03:43:38;;;;;;;7.07;5.90;;;;;;;20.49;45.68;99342.59;5054148;28;20207;-89
2023/02/05 03:46:11;;;;;;;5.97;5.37;;;;;;;20.49;45.63;99347.69;5057331;28;20229;-87
2023/02/05 03:48:41;;;;;;;6.00;5.40;;;;;;;19.16;45.69;99146.03;5051900;28;20223;-89
2023/02/05 03:51:21;;;;;;;6.30;5.70;;;;;;;19.27;45.73;99140.00;5049770;28;20730;-88
2023/02/05 03:54:02;;;;;;;6.97;5.53;;;;;;;20.48;45.76;99345.94;5041204;28;20624;-86
2023/02/05 03:56:40;;;;;;;6.97;5.50;;;;;;;20.48;45.57;99345.06;5095483;22;20692;-89
2023/02/05 03:59:07;;;;;;;5.77;5.20;;;;;;;20.29;45.75;99307.28;5083805;28;20208;-90
2023/02/05 04:01:33;;;;;;;6.77;5.80;;;;;;;19.68;45.67;99202.13;5069860;28;20315;-89
2023/02/05 04:04:00;;;;;;;5.53;5.03;;;;;;;20.23;45.73;99295.81;5051549;28;20200;-90
2023/02/05 04:06:27;;;;;;;6.77;5.63;;;;;;;19.90;46.07;99239.28;5069095;28;20299;-89
2023/02/05 04:08:53;;;;;;;5.73;5.20;;;;;;;20.25;45.75;99300.22;5078517;28;20245;-90
2023/02/05 04:11:20;;;;;;;5.97;5.37;;;;;;;19.94;45.52;99250.56;5080404;28;20614;-91
2023/02/05 04:13:46;;;;;;;6.60;5.57;;;;;;;19.98;45.45;99261.06;5041675;28;20212;-90
2023/02/05 04:16:13;;;;;;;5.87;5.27;;;;;;;20.21;45.72;99292.25;5068535;28;20250;-89
2023/02/05 04:18:40;;;;;;;6.30;5.70;;;;;;;19.89;45.65;99224.75;5079224;28;20200;-90
2023/02/05 04:21:06;;;;;;;6.00;5.37;;;;;;;19.99;45.61;99239.84;5091899;28;20692;-90
2023/02/05 04:23:33;;;;;;;5.53;4.93;;;;;;;20.30;45.75;99293.72;5094126;28;20256;-90
2023/02/05 04:25:59;;;;;;;7.03;5.70;;;;;;;20.25;45.42;99276.38;5044636;28;20308;-90
2023/02/05 04:28:26;;;;;;;6.10;5.50;;;;;;;19.99;45.41;99227.09;5046502;28;20450;-90
2023/02/05 04:30:52;;;;;;;5.73;5.23;;;;;;;20.29;45.49;99291.97;5075846;28;20204;-90
2023/02/05 04:33:19;;;;;;;6.17;5.57;;;;;;;19.80;45.29;99192.69;5075732;28;20305;-89
2023/02/05 04:35:46;;;;;;;6.10;5.50;;;;;;;20.22;45.61;99284.69;5091550;28;20223;-89
2023/02/05 04:38:12;;;;;;;5.60;5.00;;;;;;;19.92;45.59;99235.16;5074606;28;20265;-90
2023/02/05 04:40:39;;;;;;;6.47;5.60;;;;;;;19.90;45.60;99235.88;5070068;28;20306;-90
2023/02/05 04:43:06;;;;;;;6.37;5.50;;;;;;;20.38;45.58;99320.63;5059421;28;20210;-90
2023/02/05 04:45:32;;;;;;;5.50;5.00;;;;;;;19.90;45.47;99235.88;5069848;28;20672;-89
2023/02/05 04:48:00;;;;;;;6.03;5.20;;;;;;;19.72;45.40;99210.06;5071885;28;20207;-90
2023/02/05 04:50:26;;;;;;;5.73;5.20;;;;;;;20.46;45.51;99332.19;5072650;28;20755;-90
2023/02/05 04:52:53;;;;;;;6.10;5.50;;;;;;;20.08;45.75;99253.97;5080273;28;20219;-90
2023/02/05 04:55:20;;;;;;;6.20;5.30;;;;;;;20.14;45.34;99260.38;5067806;28;20288;-91
2023/02/05 04:57:46;;;;;;;6.13;5.53;;;;;;;20.15;45.50;99266.34;5078358;28;20242;-89
2023/02/05 05:00:13;;;;;;;5.70;5.13;;;;;;;19.81;45.33;99197.88;5070624;28;20648;-89
2023/02/05 05:02:40;;;;;;;6.33;5.67;;;;;;;20.19;45.24;99261.53;5070258;28;20283;-88
2023/02/05 05:05:07;;;;;;;6.53;5.80;;;;;;;19.63;45.26;99160.16;5045822;28;20231;-89
2023/02/05 05:07:34;;;;;;;5.90;5.30;;;;;;;19.86;45.40;99205.81;5075479;28;20204;-90
2023/02/05 05:10:00;;;;;;;5.87;5.27;;;;;;;20.12;45.19;99256.81;5068998;28;20756;-90
2023/02/05 05:12:27;;;;;;;5.80;5.17;;;;;;;20.24;45.44;99277.13;5083183;28;20207;-89
2023/02/05 05:14:54;;;;;;;5.83;5.23;;;;;;;20.14;45.60;99256.94;5051283;28;20291;-89
2023/02/05 05:17:20;;;;;;;6.00;5.40;;;;;;;20.04;45.67;99245.22;5047678;28;20228;-89
2023/02/05 05:19:47;;;;;;;5.83;5.33;;;;;;;20.10;45.29;99249.88;5066069;28;20245;-89
2023/02/05 05:22:13;;;;;;;6.87;6.10;;;;;;;20.02;45.18;99234.94;5057829;28;20228;-89
2023/02/05 05:24:40;;;;;;;6.73;5.97;;;;;;;20.37;45.25;99305.22;5082926;28;20299;-89
2023/02/05 05:27:06;;;;;;;5.47;4.97;;;;;;;19.98;45.46;99244.84;5065011;28;20277;-90
2023/02/05 05:29:34;;;;;;;6.03;5.43;;;;;;;20.44;45.37;99312.47;5077135;28;20199;-89
2023/02/05 05:32:00;;;;;;;5.87;5.27;;;;;;;20.34;45.26;99295.66;5081116;28;20276;-90
2023/02/05 05:34:27;;;;;;;6.20;5.57;;;;;;;19.82;45.33;99204.75;5085538;28;20200;-89
2023/02/05 05:36:54;;;;;;;5.57;5.07;;;;;;;20.29;45.18;99281.75;5093857;28;20247;-91
2023/02/05 05:44:53;;;;;;;6.40;5.80;;;;;;;20.37;45.15;99303.53;5072766;28;20227;-90
2023/02/05 05:47:20;;;;;;;5.87;5.27;;;;;;;19.50;45.18;99148.28;5087385;28;20700;-89
2023/02/05 05:49:46;;;;;;;5.70;5.10;;;;;;;20.20;45.20;99260.78;5082473;28;20207;-91
2023/02/05 05:52:13;;;;;;;6.40;5.70;;;;;;;19.98;45.13;99229.53;5062279;28;20563;-89
2023/02/05 05:54:40;;;;;;;6.33;5.53;;;;;;;20.36;45.12;99294.09;5060575;28;20229;-89
2023/02/05 05:57:06;;;;;;;5.77;5.27;;;;;;;19.90;45.19;99216.31;5052466;28;20296;-89
2023/02/05 05:59:33;;;;;;;5.30;4.80;;;;;;;20.30;44.96;99274.97;5060326;28;20204;-90
2023/02/05 06:02:01;;;;;;;5.53;4.83;;;;;;;20.30;45.09;99288.63;5056571;28;20204;-89
2023/02/05 06:04:27;;;;;;;5.83;5.23;;;;;;;20.29;45.08;99280.88;5059294;28;20238;-89
2023/02/05 06:06:54;;;;;;;5.90;5.30;;;;;;;20.15;44.89;99253.59;5075374;28;20306;-89
2023/02/05 06:09:20;;;;;;;6.63;5.93;;;;;;;19.73;44.90;99182.88;5090600;28;20204;-89
2023/02/05 06:11:47;;;;;;;5.93;5.33;;;;;;;19.87;44.49;99226.31;5068226;28;20370;-89
2023/02/05 06:14:14;;;;;;;6.77;5.73;;;;;;;20.05;44.40;99258.88;5078838;28;20210;-90
2023/02/05 06:16:40;;;;;;;6.20;5.03;;;;;;;20.42;44.47;99322.56;5051586;28;20251;-89
2023/02/05 06:19:07;;;;;;;9.83;6.00;;;;;;;19.80;44.55;99200.31;5073609;28;20205;-88
2023/02/05 06:21:34;;;;;;;7.73;5.33;;;;;;;19.73;44.67;99203.28;5057280;28;20253;-87
2023/02/05 06:24:00;;;;;;;6.30;5.50;;;;;;;20.37;44.59;99310.31;5046593;28;20258;-90
2023/02/05 06:26:27;;;;;;;5.90;5.40;;;;;;;20.23;44.59;99298.38;5061240;28;20630;-89
2023/02/05 06:28:56;;;;;;;6.30;5.70;;;;;;;20.22;44.80;99286.41;5049439;28;20214;-89
2023/02/05 06:31:22;;;;;;;5.57;5.07;;;;;;;19.87;44.95;99226.31;5075925;28;20200;-91
2023/02/05 06:33:49;;;;;;;6.87;5.80;;;;;;;19.63;45.17;99180.56;5058904;28;20212;-89
2023/02/05 06:36:16;;;;;;;6.37;5.00;;;;;;;19.99;44.93;99257.72;5077418;28;20685;-89
2023/02/05 06:38:42;;;;;;;5.87;5.17;;;;;;;19.87;44.72;99223.78;5064728;28;20707;-89
2023/02/05 06:41:09;;;;;;;5.63;5.10;;;;;;;19.73;44.87;99203.28;5058876;28;20247;-90
2023/02/05 06:43:35;;;;;;;5.77;4.83;;;;;;;20.01;44.97;99247.59;5053849;28;20215;-89
2023/02/05 06:46:02;;;;;;;6.20;5.13;;;;;;;20.30;45.13;99310.72;5052701;28;20260;-90
2023/02/05 06:48:29;;;;;;;5.53;5.03;;;;;;;19.65;44.78;99195.16;5062245;28;20204;-89
2023/02/05 06:50:55;;;;;;;5.60;4.67;;;;;;;20.19;44.62;99287.06;5082495;28;20204;-89
2023/02/05 06:53:22;;;;;;;5.87;5.27;;;;;;;20.14;45.15;99285.91;5055089;28;20546;-89
2023/02/05 06:55:59;;;;;;;7.40;5.03;;;;;;;17.90;44.98;98904.31;5070197;28;20233;-88
2023/02/05 06:58:26;;;;;;;5.50;5.00;;;;;;;19.73;45.14;99201.63;5053801;28;20191;-88
2023/02/05 07:00:53;;;;;;;6.00;5.20;;;;;;;18.64;45.27;99011.88;5053672;28;20224;-89
2023/02/05 07:03:20;;;;;;;5.93;5.37;;;;;;;20.42;45.30;99337.00;5063067;28;20479;-89
2023/02/05 07:06:02;;;;;;;5.63;4.80;;;;;;;17.91;45.28;98908.63;5070518;28;20230;-87
2023/02/05 07:08:35;;;;;;;5.10;4.60;;;;;;;18.76;45.39;99037.25;5079725;28;20203;-88
2023/02/05 07:11:14;;;;;;;6.80;4.97;;;;;;;17.52;45.49;98797.59;5062665;28;20266;-88
2023/02/05 07:13:52;;;;;;;12.87;4.73;;;;;;;17.26;45.48;98756.84;5071260;28;20208;-89
2023/02/05 07:16:23;;;;;;;5.30;4.80;;;;;;;18.39;45.74;98957.66;5057361;28;20207;-88
2023/02/05 07:18:51;;;;;;;6.40;4.17;;;;;;;19.52;45.35;99172.25;5050709;28;20207;-88
2023/02/05 07:21:18;;;;;;;14.17;4.97;;;;;;;19.99;45.59;99246.63;5070728;28;20208;-89
2023/02/05 07:23:45;;;;;;;8.50;4.87;;;;;;;20.03;45.44;99258.78;5060682;28;20203;-88
2023/02/05 07:26:13;;;;;;;9.40;4.30;;;;;;;20.27;47.21;99297.75;5063063;28;20219;-89
2023/02/05 07:28:39;;;;;;;6.77;3.90;;;;;;;20.29;47.17;99314.94;5052396;28;20649;-90
2023/02/05 07:31:08;;;;;;;5.13;3.73;;;;;;;19.74;47.28;99202.50;5068656;28;20200;-89
2023/02/05 07:33:35;;;;;;;5.73;3.83;;;;;;;20.22;47.23;99299.16;5079313;28;20196;-89
2023/02/05 07:36:06;;;;;;;6.03;3.87;;;;;;;19.78;47.47;99214.69;5052435;28;20223;-89
2023/02/05 07:38:33;;;;;;;9.47;3.50;;;;;;;19.89;47.25;99231.53;5066163;28;20196;-89
2023/02/05 07:41:03;;;;;;;7.27;4.30;;;;;;;20.04;48.38;99249.47;5063487;28;20207;-90
2023/02/05 07:43:29;;;;;;;5.67;3.43;;;;;;;20.15;48.24;99261.25;5051912;28;20202;-89
2023/02/05 07:45:57;;;;;;;9.43;3.70;;;;;;;20.29;48.09;99291.97;5076381;28;20286;-90
2023/02/05 07:48:23;;;;;;;8.80;3.93;;;;;;;19.81;47.82;99213.19;5077704;28;20199;-89
2023/02/05 07:50:50;;;;;;;6.03;3.50;;;;;;;20.16;47.83;99291.13;5090669;28;20200;-89
2023/02/05 07:53:16;;;;;;;5.23;4.10;;;;;;;20.07;47.32;99270.09;5079277;28;20218;-90
2023/02/05 07:55:43;;;;;;;5.20;4.70;;;;;;;20.02;44.24;99272.34;5069863;28;20243;-90
2023/02/05 07:58:10;;;;;;;7.50;5.90;;;;;;;20.20;40.72;99299.06;5065533;28;20204;-88
2023/02/05 08:00:37;;;;;;;7.50;5.30;;;;;;;20.18;39.68;99281.88;5058443;28;20278;-92
2023/02/05 08:03:03;;;;;;;6.50;5.83;;;;;;;19.82;39.71;99216.63;5059775;28;20207;-89
2023/02/05 08:05:30;;;;;;;9.73;5.83;;;;;;;19.91;40.27;99235.06;5079273;28;20230;-89
2023/02/05 08:07:56;;;;;;;6.67;5.40;;;;;;;20.18;41.18;99274.19;5062396;28;20224;-88
2023/02/05 08:10:23;;;;;;;7.60;5.20;;;;;;;19.75;41.88;99211.94;5058764;28;20213;-88
2023/02/05 08:12:50;;;;;;;7.60;5.30;;;;;;;20.02;42.06;99265.56;5075377;28;20223;-91
2023/02/05 08:15:16;;;;;;;9.23;5.40;;;;;;;20.18;42.01;99274.19;5078431;28;20197;-88
2023/02/05 08:17:43;;;;;;;6.63;5.33;;;;;;;19.64;42.31;99178.09;5082000;28;20211;-92
2023/02/05 08:20:10;;;;;;;5.77;5.17;;;;;;;19.96;42.75;99226.03;5061857;28;20226;-91
2023/02/05 08:22:38;;;;;;;6.97;5.60;;;;;;;19.98;43.20;99233.00;5078421;28;20215;-90
2023/02/05 08:25:06;;;;;;;6.13;5.53;;;;;;;20.00;42.94;99235.63;5073657;28;20225;-90
2023/02/05 08:27:33;;;;;;;7.90;5.43;;;;;;;19.81;43.67;99197.00;5081884;28;20232;-92
2023/02/05 08:29:59;;;;;;;7.57;5.13;;;;;;;19.87;43.59;99199.94;5101139;28;20207;-92
2023/02/05 08:32:26;;;;;;;12.50;5.43;;;;;;;20.06;43.86;99241.13;5058416;28;20203;-89
2023/02/05 08:34:53;;;;;;;7.67;5.50;;;;;;;19.49;44.27;99126.13;5068109;28;20220;-92
2023/02/05 08:37:19;;;;;;;6.47;5.07;;;;;;;20.31;44.04;99252.06;5052695;28;20208;-90
2023/02/05 08:39:46;;;;;;;8.87;5.37;;;;;;;20.22;44.50;99240.44;5075010;28;20208;-90
2023/02/05 08:42:12;;;;;;;7.30;5.33;;;;;;;19.59;44.30;99133.56;5089951;28;20195;-91
2023/02/05 08:44:39;;;;;;;8.33;5.67;;;;;;;19.51;44.79;99124.53;5095277;28;20286;-92
2023/02/05 08:47:06;;;;;;;8.57;5.67;;;;;;;19.65;44.87;99130.50;5082593;28;20251;-91
2023/02/05 08:49:35;;;;;;;12.60;5.27;;;;;;;17.24;44.97;98700.00;5083824;28;20199;-91
2023/02/05 08:52:07;;;;;;;7.80;5.07;;;;;;;18.78;45.10;99000.03;5096637;28;20196;-93
2023/02/05 08:54:34;;;;;;;10.60;5.20;;;;;;;19.18;44.95;99035.75;5098170;28;20180;-93
2023/02/05 08:57:01;;;;;;;9.63;5.30;;;;;;;20.30;45.22;99236.66;5100379;28;20218;-92
2023/02/05 08:59:27;;;;;;;8.63;5.33;;;;;;;19.97;45.29;99184.41;5087324;28;20192;-90
2023/02/05 09:01:54;;;;;;;8.53;5.30;;;;;;;20.30;45.45;99226.44;5095701;28;20188;-90
2023/02/05 09:04:22;;;;;;;7.90;4.67;;;;;;;19.53;45.66;99088.94;5091164;28;20205;-92
2023/02/05 09:06:49;;;;;;;7.87;5.23;;;;;;;18.38;45.69;98888.81;5079367;28;20283;-91
2023/02/05 09:09:15;;;;;;;9.03;5.20;;;;;;;17.93;45.63;98812.97;5080700;28;20206;-92
2023/02/05 09:11:43;;;;;;;9.17;4.63;;;;;;;18.81;45.60;98960.34;5083685;28;20203;-90
2023/02/05 09:14:11;;;;;;;12.23;5.53;;;;;;;18.34;46.21;98902.97;5080939;28;20188;-92
2023/02/05 09:16:38;;;;;;;13.23;5.93;;;;;;;18.31;46.82;98879.88;5070988;28;20239;-91
2023/02/05 09:19:04;;;;;;;17.90;6.53;;;;;;;18.74;47.36;98970.94;5075978;28;20182;-90
2023/02/05 09:21:31;;;;;;;14.43;6.43;;;;;;;19.49;47.73;99087.91;5105882;28;20187;-92
2023/02/05 09:24:02;;;;;;;11.30;5.77;;;;;;;18.97;47.92;99002.94;5097119;28;20208;-90
2023/02/05 09:26:29;;;;;;;14.17;6.17;;;;;;;19.38;47.57;99065.03;5094307;28;20227;-94
2023/02/05 09:29:16;;;;;;;12.93;5.97;;;;;;;18.37;47.72;98887.00;5077329;28;20188;-90
2023/02/05 10:04:53;;;;;;;6.80;4.27;;;;;;;17.27;47.45;98629.06;5035917;28;20252;-96
2023/02/05 10:07:47;;;;;;;8.70;4.60;;;;;;;19.59;47.69;99017.91;4987134;28;20217;-92
2023/02/05 10:10:17;;;;;;;7.67;4.10;;;;;;;20.47;47.93;99165.41;5006580;28;20210;-94
2023/02/05 10:12:46;;;;;;;11.93;5.07;;;;;;;20.47;47.53;99159.41;5002717;28;20214;-94
2023/02/05 10:15:33;;;;;;;6.40;4.20;;;;;;;20.46;47.46;99155.94;5038550;28;20198;-94
2023/02/05 10:18:02;;;;;;;10.70;4.47;;;;;;;20.46;47.68;99162.75;5021089;28;20242;-94
2023/02/05 10:20:48;;;;;;;7.73;4.23;;;;;;;19.55;47.42;99009.22;5016034;28;20195;-92
2023/02/05 10:23:27;;;;;;;7.77;3.97;;;;;;;19.11;47.60;98924.03;5021378;28;20262;-95
2023/02/05 10:26:12;;;;;;;6.93;3.93;;;;;;;20.46;47.50;99158.50;5021278;28;20214;-94
2023/02/05 10:28:50;;;;;;;9.57;4.10;;;;;;;20.46;47.60;99152.53;5021378;28;20186;-94
2023/02/05 10:31:41;;;;;;;7.87;4.50;;;;;;;19.57;47.40;98994.88;5035126;28;20225;-94
2023/02/05 10:34:17;;;;;;;5.07;3.63;;;;;;;20.46;47.77;99147.44;5005567;28;20182;-92
2023/02/05 10:36:45;;;;;;;12.97;4.07;;;;;;;19.55;47.52;98981.16;5034722;28;20229;-93
2023/02/05 10:39:16;;;;;;;7.07;3.93;;;;;;;19.60;47.68;99007.81;5006308;28;20205;-93
2023/02/05 10:42:01;;;;;;;8.13;4.07;;;;;;;20.46;47.51;99140.63;5005731;28;20191;-95
2023/02/05 10:44:31;;;;;;;10.10;4.17;;;;;;;19.68;47.44;99015.91;5008353;28;20286;-93
2023/02/05 10:47:17;;;;;;;7.10;3.50;;;;;;;20.46;47.54;99135.53;5011267;28;20312;-93
2023/02/05 10:49:50;;;;;;;5.97;3.70;;;;;;;19.36;47.40;98964.66;5001292;28;20262;-92
2023/02/05 10:52:17;;;;;;;8.27;4.23;;;;;;;19.75;47.07;99021.47;5001554;28;20199;-92
2023/02/05 10:54:44;;;;;;;6.37;3.87;;;;;;;18.94;47.37;98877.91;5003069;28;20186;-92
2023/02/05 10:57:19;;;;;;;8.60;3.57;;;;;;;20.45;47.68;99132.88;4998043;28;20202;-92
2023/02/05 10:59:57;;;;;;;5.27;3.80;;;;;;;19.47;47.53;98969.63;5017222;28;20194;-94
2023/02/05 11:02:29;;;;;;;5.13;3.63;;;;;;;20.45;47.63;99127.78;4981766;28;20192;-92
2023/02/05 11:05:00;;;;;;;5.60;3.60;;;;;;;19.94;47.32;99036.22;5001421;28;20183;-94
2023/02/05 11:07:40;;;;;;;6.63;3.60;;;;;;;19.82;47.55;99010.88;5012834;28;20263;-94
2023/02/05 11:10:18;;;;;;;4.80;3.40;;;;;;;20.44;47.30;99126.91;5003512;28;20271;-94
2023/02/05 11:12:47;;;;;;;7.37;4.07;;;;;;;19.54;47.43;98969.19;5012442;28;20211;-94
2023/02/05 11:15:20;;;;;;;6.33;3.60;;;;;;;19.56;47.61;98979.47;5003069;28;20187;-94
2023/02/05 11:17:53;;;;;;;4.63;3.80;;;;;;;19.61;47.72;98976.44;5035999;28;20235;-93
2023/02/05 11:20:30;;;;;;;7.30;4.23;;;;;;;19.28;47.40;98915.78;5005010;28;20202;-93
2023/02/05 11:23:17;;;;;;;5.00;3.60;;;;;;;19.79;47.49;99014.88;5011009;28;20186;-95
2023/02/05 11:25:53;;;;;;;4.50;3.57;;;;;;;20.46;47.78;99119.34;5021555;28;20229;-94
2023/02/05 11:28:30;;;;;;;5.93;4.00;;;;;;;19.58;47.80;98957.50;4995393;28;20213;-94
2023/02/05 11:30:57;;;;;;;5.10;3.50;;;;;;;20.46;47.90;99102.31;4991275;28;20232;-93
2023/02/05 11:33:26;;;;;;;6.73;4.13;;;;;;;20.05;47.89;99037.75;4990712;28;20453;-93
2023/02/05 11:35:56;;;;;;;7.30;3.70;;;;;;;20.49;48.04;99099.09;5005678;28;20303;-94
2023/02/05 11:38:46;;;;;;;6.07;3.73;;;;;;;20.49;47.69;99096.53;5005928;28;20269;-94
2023/02/05 11:41:25;;;;;;;6.87;3.80;;;;;;;19.96;47.85;99009.13;5004087;28;20250;-94
2023/02/05 11:43:52;;;;;;;4.83;3.67;;;;;;;19.50;47.77;98949.41;5007654;28;20210;-94
2023/02/05 11:46:20;;;;;;;4.77;3.50;;;;;;;20.07;47.87;99022.50;4975926;28;20248;-93
2023/02/05 11:49:00;;;;;;;5.90;3.80;;;;;;;20.52;47.83;99104.38;4985235;28;20183;-94
2023/02/05 11:51:43;;;;;;;4.70;3.73;;;;;;;20.53;47.79;99098.47;4989613;28;20206;-94
2023/02/05 11:54:22;;;;;;;4.43;3.53;;;;;;;20.15;47.64;99026.41;5000811;28;20189;-93
2023/02/05 11:57:06;;;;;;;5.43;3.63;;;;;;;18.09;47.41;98684.28;5010509;28;20202;-95
2023/02/05 11:59:34;;;;;;;5.17;3.60;;;;;;;18.14;47.64;98669.28;5006732;28;20182;-95
2023/02/05 12:02:24;;;;;;;4.13;3.23;;;;;;;19.39;47.33;98893.47;4990736;28;20206;-94
2023/02/05 12:04:54;;;;;;;4.43;3.60;;;;;;;20.24;47.30;99034.59;4977197;28;20217;-95
2023/02/05 12:07:21;;;;;;;4.67;3.30;;;;;;;19.36;47.57;98901.78;4964936;28;20246;-96
2023/02/05 12:09:48;;;;;;;4.87;3.27;;;;;;;18.04;47.73;98670.44;4988958;28;20198;-96
2023/02/05 12:12:34;;;;;;;3.67;3.03;;;;;;;20.05;47.64;98998.56;4991392;28;20202;-95
2023/02/05 12:15:14;;;;;;;7.00;3.43;;;;;;;18.77;47.70;98769.06;4986443;28;20253;-95
2023/02/05 12:18:12;;;;;;;5.33;3.70;;;;;;;20.03;47.54;98985.72;4968628;28;20202;-96
2023/02/05 12:20:42;;;;;;;4.40;3.30;;;;;;;19.58;47.32;98927.78;4970907;28;20197;-93
2023/02/05 12:23:47;;;;;;;4.00;3.27;;;;;;;19.89;47.51;98961.06;4990410;28;20210;-93
2023/02/05 12:26:32;;;;;;;4.10;3.50;;;;;;;20.51;47.46;99066.84;4949965;28;20213;-94
2023/02/05 12:29:17;;;;;;;4.07;3.23;;;;;;;20.51;47.57;99070.28;4993684;28;20198;-94